Time;durP1;ratioP1;P1;durP2;ratioP2;P2;SDS_P1;SDS_P2;PMS_P1;PMS_P2;Temp;Humidity;BMP_temperature;BMP_pressure;BME280_temperature;BME280_humidity;BME280_pressure;Samples;Min_cycle;Max_cycle;Signal;HPM_P1;HPM_P2
2021/11/03 00:02:07;;;;;;;29.08;16.23;;;;;;;6.13;82.61;99983.41;5072848;28;20504;-60
2021/11/03 00:04:35;;;;;;;29.63;15.27;;;;;;;6.13;82.89;99985.97;5072878;28;20165;-60
2021/11/03 00:07:00;;;;;;;40.72;16.60;;;;;;;6.15;82.64;99984.25;5072506;28;20041;-60
2021/11/03 00:09:27;;;;;;;33.78;16.55;;;;;;;6.11;83.11;99973.97;5072617;28;20044;-61
2021/11/03 00:11:52;;;;;;;31.63;16.40;;;;;;;6.19;83.10;99974.72;5071255;28;20051;-61
2021/11/03 00:14:18;;;;;;;34.80;16.33;;;;;;;6.19;83.02;99977.31;5037519;28;20036;-61
2021/11/03 00:16:44;;;;;;;31.50;16.15;;;;;;;6.10;82.97;99961.94;5072362;28;20047;-60
2021/11/03 00:19:10;;;;;;;30.50;15.55;;;;;;;6.21;82.97;99978.16;5071677;28;20470;-61
2021/11/03 00:21:36;;;;;;;28.55;15.77;;;;;;;6.23;82.69;99973.81;5072702;28;20048;-61
2021/11/03 00:24:03;;;;;;;31.55;16.20;;;;;;;6.11;82.84;99961.06;5054156;28;20620;-61
2021/11/03 00:26:28;;;;;;;34.88;17.02;;;;;;;6.19;82.97;99972.16;5071901;28;20044;-60
2021/11/03 00:28:57;;;;;;;33.45;16.13;;;;;;;6.24;82.88;99978.97;5062662;28;20470;-60
2021/11/03 00:31:23;;;;;;;34.15;16.95;;;;;;;6.21;82.51;99973.00;5066549;28;20763;-62
2021/11/03 00:33:49;;;;;;;34.20;16.70;;;;;;;6.22;82.94;99974.72;5071553;28;20025;-61
2021/11/03 00:36:15;;;;;;;30.02;15.02;;;;;;;6.19;82.85;99970.41;5071424;28;20052;-59
2021/11/03 00:38:41;;;;;;;30.08;14.95;;;;;;;6.16;82.83;99973.06;5072080;28;20051;-61
2021/11/03 00:41:07;;;;;;;27.55;14.77;;;;;;;6.14;83.20;99976.50;5072156;28;20535;-61
2021/11/03 00:43:34;;;;;;;33.97;15.18;;;;;;;6.19;83.19;99977.31;5071671;28;20048;-62
2021/11/03 00:46:01;;;;;;;33.08;15.32;;;;;;;6.18;82.98;99966.13;5053586;28;20535;-61
2021/11/03 00:48:27;;;;;;;28.63;15.15;;;;;;;6.16;82.93;99977.34;5071135;28;20044;-61
2021/11/03 00:50:53;;;;;;;34.03;15.73;;;;;;;6.10;83.55;99967.97;5070462;28;20047;-61
2021/11/03 00:53:20;;;;;;;29.08;14.00;;;;;;;6.12;83.37;99976.56;5069949;28;20129;-60
2021/11/03 00:55:46;;;;;;;31.67;14.73;;;;;;;6.13;83.48;99979.97;5056546;28;20428;-60
2021/11/03 00:58:13;;;;;;;30.50;14.45;;;;;;;6.11;83.88;99974.84;5076896;28;20047;-61
2021/11/03 01:00:41;;;;;;;32.22;15.00;;;;;;;6.15;83.98;99976.50;5074690;28;20044;-61
2021/11/03 01:03:07;;;;;;;30.48;15.18;;;;;;;6.16;83.78;99967.88;5073827;28;20036;-61
2021/11/03 01:05:38;;;;;;;25.65;13.77;;;;;;;6.17;84.42;99973.91;5085028;28;20426;-61
2021/11/03 01:08:09;;;;;;;33.47;14.88;;;;;;;6.10;84.08;99954.19;5055453;28;20044;-62
2021/11/03 01:10:38;;;;;;;27.40;13.07;;;;;;;6.19;84.56;99965.25;5091411;28;20040;-60
2021/11/03 01:13:04;;;;;;;30.45;13.73;;;;;;;6.07;84.95;99964.56;5081136;28;20070;-60
2021/11/03 01:15:29;;;;;;;30.65;13.75;;;;;;;6.04;84.71;99946.53;5078866;28;20071;-60
2021/11/03 01:17:55;;;;;;;31.67;13.93;;;;;;;6.19;84.26;99961.81;5090564;28;20044;-61
2021/11/03 01:20:24;;;;;;;29.08;14.15;;;;;;;6.13;84.95;99960.16;5069074;28;20043;-61
2021/11/03 01:22:51;;;;;;;26.30;13.30;;;;;;;6.10;84.95;99965.38;5091195;28;20503;-60
2021/11/03 01:25:17;;;;;;;27.38;13.73;;;;;;;6.13;85.35;99961.88;5091212;28;20452;-60
2021/11/03 01:27:43;;;;;;;26.67;13.30;;;;;;;6.19;85.22;99961.81;5072804;28;20040;-58
2021/11/03 01:30:11;;;;;;;30.17;13.70;;;;;;;6.19;84.95;99957.50;5090828;28;20055;-60
2021/11/03 01:32:37;;;;;;;28.10;13.93;;;;;;;6.17;84.73;99948.97;5105112;28;20040;-61
2021/11/03 01:35:05;;;;;;;28.00;13.80;;;;;;;6.22;85.18;99961.81;5089437;28;20036;-59
2021/11/03 01:37:31;;;;;;;27.55;13.05;;;;;;;6.19;84.89;99959.25;5072721;28;20055;-59
2021/11/03 01:39:56;;;;;;;28.55;13.75;;;;;;;6.21;85.37;99955.78;5071135;28;20036;-57
2021/11/03 01:42:23;;;;;;;28.38;13.52;;;;;;;6.24;85.94;99960.03;5072833;28;20111;-60
2021/11/03 01:44:50;;;;;;;27.48;13.07;;;;;;;6.28;85.88;99948.81;5075705;28;19926;-59
2021/11/03 01:47:40;;;;;;;35.40;12.70;;;;;;;6.28;85.59;99947.06;5072338;28;20090;-61
2021/11/03 01:50:13;;;;;;;29.58;13.27;;;;;;;6.28;85.85;99946.25;5055943;28;20142;-60
2021/11/03 01:52:41;;;;;;;28.33;13.57;;;;;;;6.29;85.40;99946.19;5106597;28;20093;-61
2021/11/03 01:55:09;;;;;;;25.77;12.38;;;;;;;6.35;85.46;99943.53;5056423;28;20047;-61
2021/11/03 01:57:40;;;;;;;24.75;12.93;;;;;;;6.44;85.71;99937.38;5075352;28;20055;-60
2021/11/03 02:00:18;;;;;;;27.92;13.07;;;;;;;6.43;85.20;99942.59;5088991;28;20643;-62
2021/11/03 02:02:56;;;;;;;26.65;12.15;;;;;;;6.39;85.28;99945.19;5066471;28;20048;-60
2021/11/03 02:05:22;;;;;;;26.63;12.80;;;;;;;6.32;85.63;99940.16;5085286;28;20036;-60
2021/11/03 02:07:50;;;;;;;26.77;13.50;;;;;;;6.34;85.53;99943.56;5064062;28;20044;-61
2021/11/03 02:10:17;;;;;;;30.38;13.43;;;;;;;6.36;85.69;99939.22;5058969;28;20063;-61
2021/11/03 02:12:45;;;;;;;26.27;12.77;;;;;;;6.44;85.89;99942.56;5077561;28;20078;-61
2021/11/03 02:15:14;;;;;;;31.67;13.02;;;;;;;6.43;85.23;99938.28;5071620;28;20066;-60
2021/11/03 02:17:42;;;;;;;27.95;12.30;;;;;;;6.42;85.02;99931.41;5059194;28;20123;-61
2021/11/03 02:20:12;;;;;;;27.63;12.50;;;;;;;6.45;85.02;99936.53;5084484;28;20047;-61
2021/11/03 02:22:44;;;;;;;27.20;13.20;;;;;;;6.52;85.02;99937.28;5065022;28;20431;-60
2021/11/03 02:25:15;;;;;;;24.13;12.02;;;;;;;6.52;84.60;99935.56;5081021;28;20039;-60
2021/11/03 02:27:46;;;;;;;31.88;13.52;;;;;;;6.45;85.03;99933.06;5054406;28;20059;-62
2021/11/03 02:30:15;;;;;;;25.52;12.43;;;;;;;6.45;85.37;99939.09;5073733;28;20040;-61
2021/11/03 02:32:43;;;;;;;24.48;11.45;;;;;;;6.45;85.49;99933.94;5072557;28;20040;-61
2021/11/03 02:35:10;;;;;;;25.40;12.85;;;;;;;6.39;85.67;99913.34;5060608;28;20155;-60
2021/11/03 02:37:49;;;;;;;29.45;12.85;;;;;;;6.50;85.31;99926.97;5090215;28;20039;-61
2021/11/03 02:40:38;;;;;;;28.23;13.60;;;;;;;6.47;85.51;99932.19;5072936;28;20058;-61
2021/11/03 02:43:21;;;;;;;27.90;12.38;;;;;;;6.50;85.07;99923.53;5059358;28;20540;-60
2021/11/03 02:45:56;;;;;;;25.33;12.32;;;;;;;6.54;84.75;99926.06;5059975;28;20514;-60
2021/11/03 02:48:25;;;;;;;32.90;13.48;;;;;;;6.50;85.28;99920.97;5070509;28;20463;-60
2021/11/03 02:51:13;;;;;;;30.88;13.18;;;;;;;6.54;85.44;99925.22;5077846;28;20040;-61
2021/11/03 02:53:56;;;;;;;26.40;13.45;;;;;;;6.52;85.31;99912.31;5059337;28;20434;-61
2021/11/03 02:56:28;;;;;;;26.35;13.27;;;;;;;6.59;84.79;99908.78;5096243;28;20047;-62
2021/11/03 02:58:54;;;;;;;26.35;12.50;;;;;;;6.62;85.22;99920.78;5070916;28;20116;-61
2021/11/03 03:01:31;;;;;;;27.10;12.93;;;;;;;6.65;84.72;99916.41;5073330;28;20051;-61
2021/11/03 03:03:58;;;;;;;26.33;13.48;;;;;;;6.45;85.15;99894.34;5104176;28;20050;-62
2021/11/03 03:06:27;;;;;;;28.60;13.52;;;;;;;6.54;85.04;99917.47;5069836;28;20043;-62
2021/11/03 03:08:56;;;;;;;34.85;15.18;;;;;;;6.50;85.46;99906.31;5083726;28;20039;-60
2021/11/03 03:11:24;;;;;;;29.08;13.98;;;;;;;6.54;85.45;99910.56;5105466;28;20075;-61
2021/11/03 03:13:50;;;;;;;32.30;15.00;;;;;;;6.55;85.52;99907.09;5089244;28;20028;-60
2021/11/03 03:16:18;;;;;;;28.50;14.43;;;;;;;6.56;85.43;99913.13;5088667;28;20040;-61
2021/11/03 03:18:43;;;;;;;29.95;14.25;;;;;;;6.59;85.42;99913.94;5080071;28;20630;-62
2021/11/03 03:21:11;;;;;;;29.55;14.88;;;;;;;6.51;85.85;99902.88;5089606;28;20089;-60
2021/11/03 03:23:37;;;;;;;33.80;15.05;;;;;;;6.55;86.23;99898.50;5087760;28;20040;-61
2021/11/03 03:26:04;;;;;;;33.28;15.02;;;;;;;6.59;86.01;99897.59;5070417;28;20109;-62
2021/11/03 03:28:31;;;;;;;29.10;14.23;;;;;;;6.57;85.80;99900.19;5107816;28;20410;-60
2021/11/03 03:30:57;;;;;;;31.55;14.40;;;;;;;6.39;86.14;99870.31;5083926;28;20112;-60
2021/11/03 03:33:24;;;;;;;28.67;13.95;;;;;;;6.57;85.75;99896.75;5077714;28;20040;-60
2021/11/03 03:35:50;;;;;;;27.92;13.27;;;;;;;6.45;85.43;99868.50;5070842;28;20040;-61
2021/11/03 03:38:16;;;;;;;31.05;13.82;;;;;;;6.59;85.77;99898.47;5086672;28;20039;-62
2021/11/03 03:40:43;;;;;;;33.22;14.93;;;;;;;6.53;85.93;99892.53;5071105;28;20116;-60
2021/11/03 03:43:09;;;;;;;30.25;14.68;;;;;;;6.52;86.61;99894.25;5104589;28;20515;-60
2021/11/03 03:45:35;;;;;;;31.13;14.00;;;;;;;6.54;86.00;99889.06;5082601;28;20052;-61
2021/11/03 03:48:01;;;;;;;31.20;15.13;;;;;;;6.47;86.49;99879.69;5070618;28;20125;-61
2021/11/03 03:50:28;;;;;;;33.45;14.80;;;;;;;6.33;87.61;99867.81;5081376;28;20074;-62
2021/11/03 03:52:54;;;;;;;28.80;15.30;;;;;;;6.43;87.36;99881.47;5089145;28;20035;-61
2021/11/03 03:55:20;;;;;;;31.27;15.20;;;;;;;6.43;87.25;99886.63;5088847;28;20122;-61
2021/11/03 03:57:47;;;;;;;31.05;15.20;;;;;;;6.46;87.75;99875.41;5039449;28;20072;-60
2021/11/03 04:00:19;;;;;;;29.88;14.43;;;;;;;6.52;87.08;99883.91;5083817;28;20592;-61
2021/11/03 04:02:51;;;;;;;28.88;14.43;;;;;;;6.44;87.47;99878.00;5050889;28;20044;-60
2021/11/03 04:05:19;;;;;;;32.45;15.07;;;;;;;6.45;87.46;99877.13;5034304;28;20804;-60
2021/11/03 04:07:45;;;;;;;33.10;14.27;;;;;;;6.43;87.97;99868.56;5054243;28;20059;-60
2021/11/03 04:10:12;;;;;;;33.63;15.27;;;;;;;6.44;87.85;99872.00;5070402;28;20048;-60
2021/11/03 04:12:39;;;;;;;31.48;14.65;;;;;;;6.50;88.02;99866.72;5066807;28;20109;-60
2021/11/03 04:15:07;;;;;;;30.38;14.57;;;;;;;6.56;88.13;99861.47;5086265;28;20044;-61
2021/11/03 04:17:33;;;;;;;31.40;14.68;;;;;;;6.62;87.57;99864.81;5058855;28;20526;-61
2021/11/03 04:19:59;;;;;;;34.22;14.45;;;;;;;6.61;87.67;99862.25;5033315;28;20036;-59
2021/11/03 04:22:24;;;;;;;32.22;14.90;;;;;;;6.58;87.48;99858.00;5051521;28;20048;-63
2021/11/03 04:24:51;;;;;;;31.40;14.38;;;;;;;6.67;87.11;99863.00;5044341;28;20550;-61
2021/11/03 04:27:17;;;;;;;32.25;14.48;;;;;;;6.61;87.22;99868.28;5050294;28;20040;-61
2021/11/03 04:29:44;;;;;;;34.88;16.25;;;;;;;6.61;87.64;99878.59;5082038;28;20076;-62
2021/11/03 04:32:12;;;;;;;36.65;16.25;;;;;;;6.54;87.69;99882.13;5052040;28;20515;-60
2021/11/03 04:34:39;;;;;;;31.60;14.57;;;;;;;6.55;87.87;99878.69;5045296;28;20068;-60
2021/11/03 04:37:06;;;;;;;33.88;15.23;;;;;;;6.51;88.01;99873.59;5045343;28;20051;-60
2021/11/03 04:39:36;;;;;;;34.78;15.27;;;;;;;6.53;88.48;99871.84;5034511;28;20048;-61
2021/11/03 04:42:03;;;;;;;32.20;15.05;;;;;;;6.56;88.55;99869.22;5079511;28;20074;-60
2021/11/03 04:44:29;;;;;;;33.75;15.20;;;;;;;6.57;88.74;99883.84;5049471;28;20040;-60
2021/11/03 04:46:56;;;;;;;31.83;14.85;;;;;;;6.60;88.53;99891.53;5044073;28;20048;-59
2021/11/03 04:49:27;;;;;;;34.88;15.73;;;;;;;6.58;88.78;99890.72;5044453;28;20094;-61
2021/11/03 04:51:55;;;;;;;32.75;15.80;;;;;;;6.58;88.44;99881.25;5045318;28;20041;-59
2021/11/03 04:54:22;;;;;;;37.83;16.45;;;;;;;6.73;88.10;99898.22;5075777;28;20119;-60
2021/11/03 04:56:49;;;;;;;33.17;15.07;;;;;;;6.79;87.71;99901.59;5047988;28;20072;-62
2021/11/03 04:59:16;;;;;;;34.90;15.98;;;;;;;6.80;87.81;99898.09;5045796;28;20036;-60
2021/11/03 05:01:42;;;;;;;31.65;15.23;;;;;;;6.78;87.64;99894.69;5053638;28;20040;-61
2021/11/03 05:04:08;;;;;;;43.78;16.38;;;;;;;6.77;87.69;99905.91;5046218;28;20882;-61
2021/11/03 05:06:37;;;;;;;35.63;15.63;;;;;;;6.79;87.49;99911.06;5033305;28;20041;-60
2021/11/03 05:09:07;;;;;;;32.88;14.63;;;;;;;6.71;88.31;99903.41;5039745;28;20087;-60
2021/11/03 05:11:33;;;;;;;33.55;16.23;;;;;;;6.72;88.29;99901.69;5044296;28;20082;-62
2021/11/03 05:14:00;;;;;;;36.72;15.73;;;;;;;6.61;88.41;99877.75;5028342;28;20072;-61
2021/11/03 05:16:29;;;;;;;36.25;15.95;;;;;;;6.72;88.70;99901.69;5080655;28;20435;-56
2021/11/03 05:18:57;;;;;;;30.75;14.07;;;;;;;6.77;88.37;99897.31;5050233;28;20040;-47
2021/11/03 05:21:23;;;;;;;37.35;15.50;;;;;;;6.78;88.13;99901.59;5064425;28;20039;-52
2021/11/03 05:23:51;;;;;;;33.88;16.50;;;;;;;6.75;88.60;99906.84;5055938;28;20040;-57
2021/11/03 05:26:21;;;;;;;38.85;16.33;;;;;;;6.81;88.09;99904.13;5070169;28;20118;-58
2021/11/03 05:28:49;;;;;;;36.80;16.10;;;;;;;6.89;88.25;99901.44;5072233;28;20093;-61
2021/11/03 05:31:16;;;;;;;32.80;15.02;;;;;;;6.92;87.99;99901.38;5053536;28;20085;-61
2021/11/03 05:33:42;;;;;;;39.45;16.00;;;;;;;6.91;87.82;99892.75;5069806;28;20045;-61
2021/11/03 05:36:08;;;;;;;37.67;15.93;;;;;;;6.83;88.28;99899.78;5052820;28;20059;-61
2021/11/03 05:38:33;;;;;;;36.42;16.38;;;;;;;6.81;88.30;99904.97;5071216;28;20119;-60
2021/11/03 05:40:59;;;;;;;40.63;16.42;;;;;;;6.81;87.95;99910.16;5070260;28;20185;-54
2021/11/03 05:43:25;;;;;;;36.35;16.63;;;;;;;6.79;88.17;99898.16;5068031;28;20060;-52
2021/11/03 05:45:51;;;;;;;37.38;15.82;;;;;;;6.93;88.13;99914.28;5069111;28;20047;-56
2021/11/03 05:48:18;;;;;;;35.85;16.23;;;;;;;6.88;88.02;99913.50;5059510;28;20043;-57
2021/11/03 05:50:48;;;;;;;34.50;15.30;;;;;;;6.85;88.11;99902.38;5053663;28;20435;-55
2021/11/03 05:53:14;;;;;;;37.35;16.15;;;;;;;6.87;88.31;99909.19;5057681;28;20036;-57
2021/11/03 05:55:41;;;;;;;35.63;15.43;;;;;;;6.89;88.14;99917.78;5068815;28;20044;-56
2021/11/03 05:58:07;;;;;;;39.38;17.00;;;;;;;6.94;87.93;99917.72;5067341;28;20529;-54
2021/11/03 06:00:36;;;;;;;41.75;16.90;;;;;;;6.92;87.84;99915.16;5070454;28;20142;-57
2021/11/03 06:03:02;;;;;;;41.00;17.73;;;;;;;6.84;87.79;99900.66;5069189;28;20178;-55
2021/11/03 06:05:28;;;;;;;36.92;16.50;;;;;;;6.96;87.78;99919.38;5068306;28;20040;-58
2021/11/03 06:07:58;;;;;;;37.65;16.75;;;;;;;7.00;87.48;99912.47;5068575;28;20040;-56
2021/11/03 06:10:26;;;;;;;;;;;;;;;7.00;87.46;99907.28;5051984;28;20041;-56
2021/11/03 06:12:54;;;;;;;38.35;16.77;;;;;;;6.96;87.29;99906.47;5069318;28;19909;-58
2021/11/03 06:15:22;;;;;;;38.47;16.73;;;;;;;6.98;87.07;99912.47;5066028;28;20044;-57
2021/11/03 06:17:51;;;;;;;42.15;18.10;;;;;;;6.92;87.37;99904.81;5067115;28;20060;-59
2021/11/03 06:20:18;;;;;;;41.22;18.17;;;;;;;6.96;87.66;99915.97;5055043;28;20063;-57
2021/11/03 06:22:44;;;;;;;39.85;17.50;;;;;;;6.97;87.63;99915.06;5068629;28;20062;-57
2021/11/03 06:25:13;;;;;;;44.90;17.50;;;;;;;6.87;87.58;99898.88;5069070;28;20491;-60
2021/11/03 06:27:39;;;;;;;45.70;19.73;;;;;;;6.91;87.50;99910.84;5051848;28;20040;-56
2021/11/03 06:30:07;;;;;;;41.00;17.95;;;;;;;6.91;88.29;99908.25;5054676;28;20504;-56
2021/11/03 06:32:35;;;;;;;39.47;18.02;;;;;;;6.78;88.16;99905.03;5053581;28;20412;-57
2021/11/03 06:35:02;;;;;;;40.03;18.40;;;;;;;6.98;87.67;99912.47;5068661;28;20036;-56
2021/11/03 06:37:29;;;;;;;37.05;16.75;;;;;;;6.98;87.46;99909.03;5071938;28;20052;-54
2021/11/03 06:39:55;;;;;;;41.10;18.13;;;;;;;6.96;87.77;99908.22;5051645;28;20048;-59
2021/11/03 06:42:21;;;;;;;42.15;18.73;;;;;;;6.85;87.91;99895.47;5069871;28;20040;-59
2021/11/03 06:44:47;;;;;;;42.45;19.17;;;;;;;7.01;88.00;99896.94;5051469;28;20048;-58
2021/11/03 06:47:13;;;;;;;43.20;18.63;;;;;;;7.07;87.53;99898.53;5032747;28;20051;-58
2021/11/03 06:49:40;;;;;;;43.53;18.05;;;;;;;7.10;87.54;99890.75;5069571;28;20036;-56
2021/11/03 06:52:06;;;;;;;39.15;17.70;;;;;;;7.20;87.00;99889.72;5069742;28;20052;-57
2021/11/03 06:54:33;;;;;;;43.17;17.85;;;;;;;7.20;86.47;99882.81;5069378;28;20529;-58
2021/11/03 06:57:02;;;;;;;40.60;18.00;;;;;;;7.11;86.32;99872.63;5063244;28;20055;-56
2021/11/03 06:59:29;;;;;;;39.95;18.50;;;;;;;7.20;86.49;99881.94;5081526;28;20074;-57
2021/11/03 07:01:55;;;;;;;33.63;16.00;;;;;;;7.28;85.95;99874.03;5069409;28;20044;-58
2021/11/03 07:04:21;;;;;;;41.22;17.70;;;;;;;7.27;85.75;99882.69;5069554;28;20067;-56
2021/11/03 07:06:47;;;;;;;46.38;18.98;;;;;;;7.23;85.85;99887.91;5067554;28;20045;-57
2021/11/03 07:09:13;;;;;;;38.85;17.58;;;;;;;7.29;85.44;99888.69;5069274;28;20127;-56
2021/11/03 07:11:39;;;;;;;39.22;18.33;;;;;;;7.22;85.48;99880.19;5031493;28;20041;-51
2021/11/03 07:14:06;;;;;;;40.25;18.75;;;;;;;7.23;85.76;99895.66;5068899;28;20064;-51
2021/11/03 07:16:33;;;;;;;44.20;17.95;;;;;;;7.12;85.75;99882.06;5038183;28;20136;-50
2021/11/03 07:18:59;;;;;;;40.08;16.75;;;;;;;7.15;85.77;99889.78;5048287;28;20070;-51
2021/11/03 07:21:25;;;;;;;45.40;19.33;;;;;;;7.13;86.14;99891.53;5066723;28;20519;-49
2021/11/03 07:23:50;;;;;;;44.35;20.55;;;;;;;7.14;86.46;99890.66;5082767;28;20053;-51
2021/11/03 07:26:16;;;;;;;41.97;18.90;;;;;;;7.17;86.20;99888.00;5051285;28;20036;-49
2021/11/03 07:28:42;;;;;;;47.13;21.13;;;;;;;7.18;86.05;99889.72;5064299;28;20518;-50
2021/11/03 07:31:09;;;;;;;42.63;19.75;;;;;;;7.29;86.01;99889.53;5049101;28;20041;-55
2021/11/03 07:33:35;;;;;;;41.70;18.60;;;;;;;7.34;85.26;99889.44;5048674;28;20509;-51
2021/11/03 07:36:01;;;;;;;50.38;19.55;;;;;;;7.33;85.16;99887.78;5047861;28;20047;-54
2021/11/03 07:38:27;;;;;;;45.20;20.13;;;;;;;7.28;84.84;99880.06;5066351;28;20106;-51
2021/11/03 07:40:56;;;;;;;44.35;19.38;;;;;;;7.24;85.36;99881.84;5070103;28;20048;-52
2021/11/03 07:43:23;;;;;;;47.10;20.27;;;;;;;7.10;85.36;99860.56;5053858;28;20044;-53
2021/11/03 07:45:51;;;;;;;42.88;18.80;;;;;;;7.20;85.22;99894.88;5070806;28;20049;-54
2021/11/03 07:48:17;;;;;;;46.85;20.70;;;;;;;7.19;85.66;99883.69;5069960;28;20075;-52
2021/11/03 07:50:49;;;;;;;38.70;17.23;;;;;;;7.13;85.68;99885.50;5051063;28;20923;-58
2021/11/03 07:53:16;;;;;;;48.70;21.15;;;;;;;7.15;85.99;99878.59;5084734;28;20080;-60
2021/11/03 07:55:44;;;;;;;43.20;19.00;;;;;;;7.23;85.88;99868.94;5070062;28;20078;-53
2021/11/03 07:58:16;;;;;;;42.85;20.27;;;;;;;7.28;85.39;99866.28;5053801;28;20139;-46
2021/11/03 08:00:42;;;;;;;42.42;19.65;;;;;;;7.32;85.12;99868.81;5053823;28;20538;-50
2021/11/03 08:03:08;;;;;;;43.60;19.92;;;;;;;7.27;85.28;99865.47;5069953;28;20044;-46
2021/11/03 08:05:36;;;;;;;46.72;20.55;;;;;;;7.26;85.11;99866.31;5069361;28;20562;-48
2021/11/03 08:08:07;;;;;;;43.45;20.40;;;;;;;7.28;85.17;99880.06;5070118;28;20082;-48
2021/11/03 08:10:33;;;;;;;55.08;21.33;;;;;;;7.23;85.58;99863.78;5054035;28;20036;-53
2021/11/03 08:12:59;;;;;;;45.25;20.33;;;;;;;7.26;85.20;99843.06;5070775;28;20121;-50
2021/11/03 08:15:26;;;;;;;44.88;20.92;;;;;;;7.32;85.20;99850.69;5052049;28;20102;-53
2021/11/03 08:17:52;;;;;;;50.42;22.00;;;;;;;7.37;85.28;99840.28;5085438;28;20523;-50
2021/11/03 08:20:23;;;;;;;43.20;20.30;;;;;;;7.40;84.92;99845.38;5052618;28;20456;-51
2021/11/03 08:22:50;;;;;;;48.13;20.63;;;;;;;7.33;84.95;99836.88;5054231;28;20028;-55
2021/11/03 08:25:16;;;;;;;46.95;20.88;;;;;;;7.40;84.80;99840.19;5070098;28;20526;-56
2021/11/03 08:27:42;;;;;;;43.80;20.50;;;;;;;7.33;85.05;99839.44;5070229;28;20052;-56
2021/11/03 08:30:11;;;;;;;43.45;21.77;;;;;;;7.38;84.86;99842.81;5071225;28;20033;-59
2021/11/03 08:32:44;;;;;;;48.73;19.77;;;;;;;7.44;84.72;99847.00;5071612;28;20535;-57
2021/11/03 08:35:12;;;;;;;43.33;20.33;;;;;;;7.50;84.57;99845.16;5052965;28;20080;-49
2021/11/03 08:37:38;;;;;;;44.53;20.52;;;;;;;7.55;83.84;99837.31;5085931;28;20051;-50
2021/11/03 08:40:07;;;;;;;41.95;21.05;;;;;;;7.56;83.86;99841.59;5053167;28;20045;-49
2021/11/03 08:42:33;;;;;;;40.60;19.97;;;;;;;7.52;83.75;99846.00;5053211;28;20044;-51
2021/11/03 08:44:59;;;;;;;43.10;20.27;;;;;;;7.50;84.06;99847.75;5071112;28;20040;-52
2021/11/03 08:47:25;;;;;;;47.42;21.70;;;;;;;7.45;83.92;99846.13;5070899;28;20089;-53
2021/11/03 08:49:51;;;;;;;39.33;19.13;;;;;;;7.38;83.92;99829.88;5070594;28;20163;-53
2021/11/03 08:52:18;;;;;;;36.65;17.02;;;;;;;7.42;84.28;99878.09;5049966;28;20139;-52
2021/11/03 08:54:45;;;;;;;41.55;19.80;;;;;;;7.42;84.54;99851.38;5068826;28;20047;-54
2021/11/03 08:57:12;;;;;;;46.80;22.02;;;;;;;7.44;84.56;99839.25;5053639;28;20056;-57
2021/11/03 08:59:38;;;;;;;42.95;20.23;;;;;;;7.48;84.12;99857.31;5069704;28;20036;-62
2021/11/03 09:02:04;;;;;;;43.75;21.10;;;;;;;7.43;84.29;99855.69;5030246;28;20222;-59
2021/11/03 09:04:32;;;;;;;46.15;19.80;;;;;;;7.31;83.82;99822.28;5070503;28;20147;-56
2021/11/03 09:06:58;;;;;;;43.42;19.70;;;;;;;7.44;84.23;99839.25;5052928;28;20040;-53
2021/11/03 09:09:26;;;;;;;39.13;20.33;;;;;;;7.42;84.17;99816.03;5036538;28;20061;-49
2021/11/03 09:11:52;;;;;;;43.28;19.42;;;;;;;7.46;84.02;99822.84;5070630;28;20048;-51
2021/11/03 09:14:21;;;;;;;44.67;20.67;;;;;;;7.50;83.47;99827.06;5070586;28;20032;-61
2021/11/03 09:16:49;;;;;;;45.75;20.92;;;;;;;7.49;83.45;99812.41;5071215;28;20571;-56
2021/11/03 09:19:15;;;;;;;46.20;21.42;;;;;;;7.48;83.46;99812.47;5069277;28;20143;-56
2021/11/03 09:21:41;;;;;;;39.00;20.27;;;;;;;7.49;83.33;99799.47;5054025;28;20131;-55
2021/11/03 09:24:07;;;;;;;50.90;20.88;;;;;;;7.58;83.01;99794.16;5080173;28;20059;-56
2021/11/03 09:26:33;;;;;;;40.55;20.85;;;;;;;7.54;83.24;99783.88;5051634;28;20055;-53
2021/11/03 09:29:02;;;;;;;44.67;22.13;;;;;;;7.67;82.64;99795.69;5069037;28;20040;-53
2021/11/03 09:31:28;;;;;;;40.00;20.05;;;;;;;7.68;82.23;99809.47;5050189;28;20089;-55
2021/11/03 09:33:55;;;;;;;40.15;21.45;;;;;;;7.65;82.24;99802.59;5069760;28;20063;-54
2021/11/03 09:36:22;;;;;;;51.83;21.60;;;;;;;7.65;82.24;99785.34;5066457;28;20040;-52
2021/11/03 09:38:49;;;;;;;44.60;20.85;;;;;;;7.69;82.11;99798.25;5052026;28;20047;-50
2021/11/03 09:41:29;;;;;;;45.45;22.65;;;;;;;7.76;81.81;99794.63;5049994;28;20492;-48
2021/11/03 09:44:26;;;;;;;41.90;21.55;;;;;;;7.77;81.65;99783.38;5035342;28;20040;-55
2021/11/03 09:46:59;;;;;;;45.78;22.05;;;;;;;7.79;81.63;99786.81;5049242;28;20139;-51
2021/11/03 09:49:36;;;;;;;40.45;21.15;;;;;;;7.63;81.78;99779.38;5049459;28;20065;-56
2021/11/03 09:52:12;;;;;;;;;;;;;;;7.71;81.77;99792.13;5067222;28;20036;-53
2021/11/03 09:54:38;;;;;;;44.75;19.42;;;;;;;7.71;81.89;99789.53;5032399;28;19923;-52
2021/11/03 09:57:30;;;;;;;46.38;21.42;;;;;;;7.73;81.93;99782.63;5050112;28;20063;-53
2021/11/03 10:00:27;;;;;;;43.88;21.85;;;;;;;7.77;82.23;99779.06;5065636;28;20047;-54
2021/11/03 10:03:17;;;;;;;51.63;22.83;;;;;;;7.78;82.23;99793.72;5068007;28;20056;-57
2021/11/03 10:06:12;;;;;;;43.15;20.05;;;;;;;7.75;82.30;99787.75;5083502;28;20047;-53
2021/11/03 10:08:42;;;;;;;45.00;23.13;;;;;;;7.78;82.07;99779.94;5054817;28;20102;-56
2021/11/03 10:11:14;;;;;;;49.58;22.58;;;;;;;7.80;82.33;99778.16;5068257;28;20036;-54
2021/11/03 10:13:40;;;;;;;45.35;22.00;;;;;;;7.76;82.79;99777.34;5067146;28;20028;-51
2021/11/03 10:16:15;;;;;;;49.35;23.75;;;;;;;7.78;82.95;99773.03;5066316;28;20036;-52
2021/11/03 10:19:01;;;;;;;43.70;22.58;;;;;;;7.73;82.95;99758.47;5067200;28;20037;-59
2021/11/03 10:21:45;;;;;;;47.17;23.38;;;;;;;7.85;82.84;99769.38;5065547;28;20051;-50
2021/11/03 10:24:14;;;;;;;42.17;22.67;;;;;;;7.86;82.81;99776.28;5065806;28;20040;-51
2021/11/03 10:26:52;;;;;;;42.47;22.80;;;;;;;7.88;82.79;99771.94;5068490;28;20044;-55
2021/11/03 10:29:29;;;;;;;51.53;23.88;;;;;;;7.86;83.11;99770.25;5073225;28;20551;-56
2021/11/03 10:32:00;;;;;;;45.97;25.23;;;;;;;7.82;84.20;99771.19;5068942;28;20457;-51
2021/11/03 10:34:41;;;;;;;53.50;23.83;;;;;;;7.76;84.79;99766.16;5051749;28;20033;-53
2021/11/03 10:37:19;;;;;;;43.83;22.25;;;;;;;7.68;85.97;99755.97;5069649;28;20048;-55
2021/11/03 10:40:01;;;;;;;48.92;25.30;;;;;;;7.63;86.86;99761.25;5068153;28;20037;-50
2021/11/03 10:42:51;;;;;;;53.90;25.05;;;;;;;7.62;87.77;99749.19;5064716;28;20487;-52
2021/11/03 10:45:29;;;;;;;48.50;24.67;;;;;;;7.64;88.35;99756.94;5048653;28;20045;-48
2021/11/03 10:48:10;;;;;;;53.75;24.40;;;;;;;7.57;89.16;99745.00;5052022;28;20044;-52
2021/11/03 10:50:41;;;;;;;45.90;23.13;;;;;;;7.59;89.55;99751.84;5050904;28;20047;-55
2021/11/03 10:53:13;;;;;;;48.28;25.42;;;;;;;7.63;89.71;99739.72;5051572;28;20054;-52
2021/11/03 10:55:44;;;;;;;43.05;22.75;;;;;;;7.63;90.06;99737.13;5070142;28;20542;-49
2021/11/03 10:58:13;;;;;;;45.13;23.65;;;;;;;7.56;90.92;99741.56;5059024;28;20397;-50
2021/11/03 11:00:45;;;;;;;41.85;21.85;;;;;;;7.56;91.56;99741.56;5069228;28;20063;-53
2021/11/03 11:03:32;;;;;;;41.17;22.48;;;;;;;7.57;91.55;99738.09;5047575;28;20037;-49
2021/11/03 11:06:13;;;;;;;44.35;23.83;;;;;;;7.57;92.07;99745.00;5047787;28;20101;-52
2021/11/03 11:08:51;;;;;;;44.83;23.25;;;;;;;7.61;92.09;99724.22;5032464;28;20059;-53
2021/11/03 11:11:19;;;;;;;41.35;22.05;;;;;;;7.70;91.68;99735.22;5034787;28;20550;-53
2021/11/03 11:14:17;;;;;;;41.63;22.27;;;;;;;7.61;92.23;99719.03;5077586;28;20044;-52
2021/11/03 11:16:58;;;;;;;40.22;21.55;;;;;;;7.69;91.96;99726.66;5048570;28;20287;-50
2021/11/03 11:19:30;;;;;;;34.70;20.55;;;;;;;7.63;92.18;99721.59;5053363;28;20512;-50
2021/11/03 11:22:08;;;;;;;40.03;21.10;;;;;;;7.65;92.54;99724.97;5084489;28;20048;-50
2021/11/03 11:25:08;;;;;;;35.85;19.67;;;;;;;7.62;92.72;99722.47;5067757;28;20044;-57
2021/11/03 11:27:38;;;;;;;34.55;19.17;;;;;;;7.59;92.94;99738.06;5032180;28;20447;-46
2021/11/03 11:30:25;;;;;;;38.28;20.55;;;;;;;7.62;93.05;99728.50;5044372;28;20044;-45
2021/11/03 11:33:27;;;;;;;37.92;21.15;;;;;;;7.62;93.22;99730.25;5047770;28;20195;-53
2021/11/03 11:36:07;;;;;;;40.05;21.08;;;;;;;7.65;93.38;99730.16;5016489;28;20542;-48
2021/11/03 11:39:08;;;;;;;39.03;20.95;;;;;;;7.67;93.04;99723.22;5049336;28;20048;-47